sensor_id;sensor_type;location;lat;lon;timestamp;temperature;humidity
75615;DHT22;64199;48.578;-4.520;2022-11-06T00:00:13;20.70;70.40
75615;DHT22;64199;48.578;-4.520;2022-11-06T00:02:39;20.80;70.40
75615;DHT22;64199;48.578;-4.520;2022-11-06T00:05:06;20.80;70.40
75615;DHT22;64199;48.578;-4.520;2022-11-06T00:07:50;20.80;70.40
75615;DHT22;64199;48.578;-4.520;2022-11-06T00:10:16;20.80;70.40
75615;DHT22;64199;48.578;-4.520;2022-11-06T00:12:43;20.70;70.40
75615;DHT22;64199;48.578;-4.520;2022-11-06T00:15:09;20.70;70.40
75615;DHT22;64199;48.578;-4.520;2022-11-06T00:17:35;20.70;70.40
75615;DHT22;64199;48.578;-4.520;2022-11-06T00:20:02;20.80;70.50
75615;DHT22;64199;48.578;-4.520;2022-11-06T00:22:31;20.70;70.40
75615;DHT22;64199;48.578;-4.520;2022-11-06T00:24:57;20.70;70.40
75615;DHT22;64199;48.578;-4.520;2022-11-06T00:27:23;20.70;70.40
75615;DHT22;64199;48.578;-4.520;2022-11-06T00:29:49;20.70;70.40
75615;DHT22;64199;48.578;-4.520;2022-11-06T00:32:15;20.70;70.40
75615;DHT22;64199;48.578;-4.520;2022-11-06T00:34:40;20.70;70.40
75615;DHT22;64199;48.578;-4.520;2022-11-06T00:37:06;20.70;70.50
75615;DHT22;64199;48.578;-4.520;2022-11-06T00:39:32;20.70;70.40
75615;DHT22;64199;48.578;-4.520;2022-11-06T00:41:58;20.70;70.40
75615;DHT22;64199;48.578;-4.520;2022-11-06T00:44:24;20.70;70.40
75615;DHT22;64199;48.578;-4.520;2022-11-06T00:46:50;20.70;70.50
75615;DHT22;64199;48.578;-4.520;2022-11-06T00:49:15;20.70;70.40
75615;DHT22;64199;48.578;-4.520;2022-11-06T00:51:41;20.70;70.40
75615;DHT22;64199;48.578;-4.520;2022-11-06T00:54:10;20.70;70.40
75615;DHT22;64199;48.578;-4.520;2022-11-06T00:56:36;20.70;70.10
75615;DHT22;64199;48.578;-4.520;2022-11-06T00:59:06;20.70;69.90
75615;DHT22;64199;48.578;-4.520;2022-11-06T01:01:34;20.70;70.10
75615;DHT22;64199;48.578;-4.520;2022-11-06T01:04:03;20.60;70.30
75615;DHT22;64199;48.578;-4.520;2022-11-06T01:06:31;20.60;70.40
75615;DHT22;64199;48.578;-4.520;2022-11-06T01:08:58;20.60;70.50
75615;DHT22;64199;48.578;-4.520;2022-11-06T01:11:32;20.60;70.50
75615;DHT22;64199;48.578;-4.520;2022-11-06T01:14:00;20.60;70.40
75615;DHT22;64199;48.578;-4.520;2022-11-06T01:16:27;20.60;70.40
75615;DHT22;64199;48.578;-4.520;2022-11-06T01:18:54;20.60;70.40
75615;DHT22;64199;48.578;-4.520;2022-11-06T01:21:26;20.60;70.40
75615;DHT22;64199;48.578;-4.520;2022-11-06T01:23:55;20.60;70.40
75615;DHT22;64199;48.578;-4.520;2022-11-06T01:26:22;20.60;70.40
75615;DHT22;64199;48.578;-4.520;2022-11-06T01:28:48;20.60;70.40
75615;DHT22;64199;48.578;-4.520;2022-11-06T01:31:17;20.60;70.40
75615;DHT22;64199;48.578;-4.520;2022-11-06T01:33:43;20.60;70.40
75615;DHT22;64199;48.578;-4.520;2022-11-06T01:36:11;20.60;70.50
75615;DHT22;64199;48.578;-4.520;2022-11-06T01:38:42;20.60;70.50
75615;DHT22;64199;48.578;-4.520;2022-11-06T01:41:21;20.60;70.40
75615;DHT22;64199;48.578;-4.520;2022-11-06T01:43:55;20.60;70.40
75615;DHT22;64199;48.578;-4.520;2022-11-06T01:46:23;20.60;70.40
75615;DHT22;64199;48.578;-4.520;2022-11-06T01:51:32;20.60;70.40
75615;DHT22;64199;48.578;-4.520;2022-11-06T01:53:59;20.60;70.50
75615;DHT22;64199;48.578;-4.520;2022-11-06T01:56:27;20.60;70.50
75615;DHT22;64199;48.578;-4.520;2022-11-06T01:58:54;20.60;70.50
75615;DHT22;64199;48.578;-4.520;2022-11-06T02:01:21;20.50;70.50
75615;DHT22;64199;48.578;-4.520;2022-11-06T02:03:55;20.50;70.60
75615;DHT22;64199;48.578;-4.520;2022-11-06T02:06:23;20.50;70.60
75615;DHT22;64199;48.578;-4.520;2022-11-06T02:08:49;20.50;70.60
75615;DHT22;64199;48.578;-4.520;2022-11-06T02:11:15;20.50;70.60
75615;DHT22;64199;48.578;-4.520;2022-11-06T02:22:49;20.50;70.70
75615;DHT22;64199;48.578;-4.520;2022-11-06T02:28:02;20.40;70.50
75615;DHT22;64199;48.578;-4.520;2022-11-06T02:30:37;20.50;70.60
75615;DHT22;64199;48.578;-4.520;2022-11-06T02:33:09;20.50;70.60
75615;DHT22;64199;48.578;-4.520;2022-11-06T02:35:44;20.40;70.50
75615;DHT22;64199;48.578;-4.520;2022-11-06T02:38:28;20.40;70.60
75615;DHT22;64199;48.578;-4.520;2022-11-06T02:40:57;20.40;70.60
75615;DHT22;64199;48.578;-4.520;2022-11-06T02:43:38;20.40;70.60
75615;DHT22;64199;48.578;-4.520;2022-11-06T02:46:46;20.40;70.60
75615;DHT22;64199;48.578;-4.520;2022-11-06T02:49:29;20.40;70.60
75615;DHT22;64199;48.578;-4.520;2022-11-06T02:51:59;20.40;70.70
75615;DHT22;64199;48.578;-4.520;2022-11-06T02:54:30;20.40;70.60
75615;DHT22;64199;48.578;-4.520;2022-11-06T02:57:04;20.40;71.50
75615;DHT22;64199;48.578;-4.520;2022-11-06T02:59:49;20.40;70.60
75615;DHT22;64199;48.578;-4.520;2022-11-06T03:02:21;20.40;70.60
75615;DHT22;64199;48.578;-4.520;2022-11-06T03:04:54;20.40;70.60
75615;DHT22;64199;48.578;-4.520;2022-11-06T03:09:55;20.40;70.60
75615;DHT22;64199;48.578;-4.520;2022-11-06T03:12:30;20.40;70.60
75615;DHT22;64199;48.578;-4.520;2022-11-06T03:17:40;20.40;70.60
75615;DHT22;64199;48.578;-4.520;2022-11-06T03:20:40;20.40;70.70
75615;DHT22;64199;48.578;-4.520;2022-11-06T03:23:19;20.30;70.60
75615;DHT22;64199;48.578;-4.520;2022-11-06T03:28:37;20.30;70.60
75615;DHT22;64199;48.578;-4.520;2022-11-06T03:31:09;20.30;70.70
75615;DHT22;64199;48.578;-4.520;2022-11-06T03:33:49;20.30;70.70
75615;DHT22;64199;48.578;-4.520;2022-11-06T03:36:23;20.30;70.70
75615;DHT22;64199;48.578;-4.520;2022-11-06T03:39:02;20.30;70.70
75615;DHT22;64199;48.578;-4.520;2022-11-06T03:41:40;20.30;70.70
75615;DHT22;64199;48.578;-4.520;2022-11-06T03:44:12;20.30;70.70
75615;DHT22;64199;48.578;-4.520;2022-11-06T03:46:42;20.30;70.70
75615;DHT22;64199;48.578;-4.520;2022-11-06T03:49:14;20.30;70.70
75615;DHT22;64199;48.578;-4.520;2022-11-06T03:51:57;20.30;70.70
75615;DHT22;64199;48.578;-4.520;2022-11-06T03:54:39;20.30;70.70
75615;DHT22;64199;48.578;-4.520;2022-11-06T03:57:28;20.30;70.70
75615;DHT22;64199;48.578;-4.520;2022-11-06T03:59:59;20.30;70.70
75615;DHT22;64199;48.578;-4.520;2022-11-06T04:02:28;20.30;70.70
75615;DHT22;64199;48.578;-4.520;2022-11-06T04:04:58;20.20;70.60
75615;DHT22;64199;48.578;-4.520;2022-11-06T04:07:35;20.20;70.70
75615;DHT22;64199;48.578;-4.520;2022-11-06T04:10:05;20.20;70.60
75615;DHT22;64199;48.578;-4.520;2022-11-06T04:12:54;20.20;70.60
75615;DHT22;64199;48.578;-4.520;2022-11-06T04:15:48;20.20;70.60
75615;DHT22;64199;48.578;-4.520;2022-11-06T04:18:19;20.20;70.70
75615;DHT22;64199;48.578;-4.520;2022-11-06T04:20:53;20.20;70.70
75615;DHT22;64199;48.578;-4.520;2022-11-06T04:26:57;20.20;70.70
75615;DHT22;64199;48.578;-4.520;2022-11-06T04:32:45;20.20;70.80
75615;DHT22;64199;48.578;-4.520;2022-11-06T04:40:51;20.10;70.80
75615;DHT22;64199;48.578;-4.520;2022-11-06T04:43:30;20.10;70.80
75615;DHT22;64199;48.578;-4.520;2022-11-06T04:46:00;20.10;71.00
75615;DHT22;64199;48.578;-4.520;2022-11-06T04:48:28;20.10;71.00
75615;DHT22;64199;48.578;-4.520;2022-11-06T04:50:59;20.00;71.00
75615;DHT22;64199;48.578;-4.520;2022-11-06T04:53:28;20.10;71.10
75615;DHT22;64199;48.578;-4.520;2022-11-06T04:56:00;20.10;71.10
75615;DHT22;64199;48.578;-4.520;2022-11-06T04:58:26;20.20;71.30
75615;DHT22;64199;48.578;-4.520;2022-11-06T05:00:52;20.10;71.20
75615;DHT22;64199;48.578;-4.520;2022-11-06T05:03:18;20.20;71.40
75615;DHT22;64199;48.578;-4.520;2022-11-06T05:05:44;20.20;71.50
75615;DHT22;64199;48.578;-4.520;2022-11-06T05:08:14;20.30;71.60
75615;DHT22;64199;48.578;-4.520;2022-11-06T05:10:42;20.30;71.70
75615;DHT22;64199;48.578;-4.520;2022-11-06T05:13:08;20.40;71.70
75615;DHT22;64199;48.578;-4.520;2022-11-06T05:15:34;20.50;71.80
75615;DHT22;64199;48.578;-4.520;2022-11-06T05:18:01;20.50;71.80
75615;DHT22;64199;48.578;-4.520;2022-11-06T05:20:28;20.60;71.90
75615;DHT22;64199;48.578;-4.520;2022-11-06T05:22:54;20.60;71.90
75615;DHT22;64199;48.578;-4.520;2022-11-06T05:25:32;20.60;71.80
75615;DHT22;64199;48.578;-4.520;2022-11-06T05:27:59;20.70;71.80
75615;DHT22;64199;48.578;-4.520;2022-11-06T05:30:25;20.70;71.80
75615;DHT22;64199;48.578;-4.520;2022-11-06T05:32:52;20.80;72.00
75615;DHT22;64199;48.578;-4.520;2022-11-06T05:35:19;20.80;72.00
75615;DHT22;64199;48.578;-4.520;2022-11-06T05:37:46;20.90;72.10
75615;DHT22;64199;48.578;-4.520;2022-11-06T05:40:12;20.90;72.00
75615;DHT22;64199;48.578;-4.520;2022-11-06T05:42:42;21.00;72.10
75615;DHT22;64199;48.578;-4.520;2022-11-06T05:45:09;21.10;72.10
75615;DHT22;64199;48.578;-4.520;2022-11-06T05:47:37;21.10;72.10
75615;DHT22;64199;48.578;-4.520;2022-11-06T05:50:04;21.10;72.00
75615;DHT22;64199;48.578;-4.520;2022-11-06T05:52:30;21.20;72.00
75615;DHT22;64199;48.578;-4.520;2022-11-06T05:54:55;21.30;72.00
75615;DHT22;64199;48.578;-4.520;2022-11-06T05:57:21;21.30;71.90
75615;DHT22;64199;48.578;-4.520;2022-11-06T05:59:47;21.30;71.90
75615;DHT22;64199;48.578;-4.520;2022-11-06T06:02:13;21.40;71.80
75615;DHT22;64199;48.578;-4.520;2022-11-06T06:04:39;21.40;71.70
75615;DHT22;64199;48.578;-4.520;2022-11-06T06:07:05;21.40;71.60
75615;DHT22;64199;48.578;-4.520;2022-11-06T06:09:31;21.50;71.60
75615;DHT22;64199;48.578;-4.520;2022-11-06T06:11:57;21.50;71.60
75615;DHT22;64199;48.578;-4.520;2022-11-06T06:14:23;21.60;71.50
75615;DHT22;64199;48.578;-4.520;2022-11-06T06:16:49;21.60;71.50
75615;DHT22;64199;48.578;-4.520;2022-11-06T06:19:15;21.70;71.50
75615;DHT22;64199;48.578;-4.520;2022-11-06T06:21:41;21.70;71.40
75615;DHT22;64199;48.578;-4.520;2022-11-06T06:24:07;21.70;71.30
75615;DHT22;64199;48.578;-4.520;2022-11-06T06:26:32;21.80;71.30
75615;DHT22;64199;48.578;-4.520;2022-11-06T06:28:58;21.80;71.20
75615;DHT22;64199;48.578;-4.520;2022-11-06T06:31:26;21.90;71.20
75615;DHT22;64199;48.578;-4.520;2022-11-06T06:33:52;21.90;71.10
75615;DHT22;64199;48.578;-4.520;2022-11-06T06:36:18;21.90;71.10
75615;DHT22;64199;48.578;-4.520;2022-11-06T06:38:44;22.00;71.10
75615;DHT22;64199;48.578;-4.520;2022-11-06T06:41:09;22.00;71.00
75615;DHT22;64199;48.578;-4.520;2022-11-06T06:43:35;22.10;71.00
75615;DHT22;64199;48.578;-4.520;2022-11-06T06:46:04;22.10;70.90
75615;DHT22;64199;48.578;-4.520;2022-11-06T06:48:30;22.10;70.90
75615;DHT22;64199;48.578;-4.520;2022-11-06T06:50:57;22.10;70.80
75615;DHT22;64199;48.578;-4.520;2022-11-06T06:53:23;22.20;70.80
75615;DHT22;64199;48.578;-4.520;2022-11-06T06:55:49;22.20;70.80
75615;DHT22;64199;48.578;-4.520;2022-11-06T06:58:15;22.20;70.70
75615;DHT22;64199;48.578;-4.520;2022-11-06T07:00:41;22.30;70.70
75615;DHT22;64199;48.578;-4.520;2022-11-06T07:03:07;22.30;70.60
75615;DHT22;64199;48.578;-4.520;2022-11-06T07:05:33;22.30;70.60
75615;DHT22;64199;48.578;-4.520;2022-11-06T07:07:58;22.40;70.50
75615;DHT22;64199;48.578;-4.520;2022-11-06T07:10:24;22.40;70.50
75615;DHT22;64199;48.578;-4.520;2022-11-06T07:12:50;22.30;70.30
75615;DHT22;64199;48.578;-4.520;2022-11-06T07:15:16;22.50;70.40
75615;DHT22;64199;48.578;-4.520;2022-11-06T07:17:42;22.50;70.20
75615;DHT22;64199;48.578;-4.520;2022-11-06T07:20:08;22.50;70.10
75615;DHT22;64199;48.578;-4.520;2022-11-06T07:22:34;22.50;70.00
75615;DHT22;64199;48.578;-4.520;2022-11-06T07:25:00;22.60;70.80
75615;DHT22;64199;48.578;-4.520;2022-11-06T07:27:26;22.60;69.90
75615;DHT22;64199;48.578;-4.520;2022-11-06T07:29:53;22.60;69.90
75615;DHT22;64199;48.578;-4.520;2022-11-06T07:32:19;22.70;69.90
75615;DHT22;64199;48.578;-4.520;2022-11-06T07:34:45;22.70;69.80
75615;DHT22;64199;48.578;-4.520;2022-11-06T07:37:11;22.70;69.70
75615;DHT22;64199;48.578;-4.520;2022-11-06T07:39:37;22.70;69.70
75615;DHT22;64199;48.578;-4.520;2022-11-06T07:42:03;22.80;69.60
75615;DHT22;64199;48.578;-4.520;2022-11-06T07:44:28;22.70;69.50
75615;DHT22;64199;48.578;-4.520;2022-11-06T07:46:54;22.80;69.70
75615;DHT22;64199;48.578;-4.520;2022-11-06T07:49:20;22.80;69.70
75615;DHT22;64199;48.578;-4.520;2022-11-06T07:51:46;22.90;69.70
75615;DHT22;64199;48.578;-4.520;2022-11-06T07:54:11;22.90;69.70
75615;DHT22;64199;48.578;-4.520;2022-11-06T07:56:37;22.90;69.60
75615;DHT22;64199;48.578;-4.520;2022-11-06T07:59:03;22.90;69.50
75615;DHT22;64199;48.578;-4.520;2022-11-06T08:01:29;23.00;69.50
75615;DHT22;64199;48.578;-4.520;2022-11-06T08:03:55;23.00;69.40
75615;DHT22;64199;48.578;-4.520;2022-11-06T08:06:21;23.00;69.30
75615;DHT22;64199;48.578;-4.520;2022-11-06T08:08:47;23.00;69.30
75615;DHT22;64199;48.578;-4.520;2022-11-06T08:11:13;23.10;69.30
75615;DHT22;64199;48.578;-4.520;2022-11-06T08:13:39;23.10;69.20
75615;DHT22;64199;48.578;-4.520;2022-11-06T08:16:07;23.10;69.20
75615;DHT22;64199;48.578;-4.520;2022-11-06T08:18:33;23.10;69.20
75615;DHT22;64199;48.578;-4.520;2022-11-06T08:20:59;23.20;69.20
75615;DHT22;64199;48.578;-4.520;2022-11-06T08:23:26;23.20;69.30
75615;DHT22;64199;48.578;-4.520;2022-11-06T08:25:56;23.20;69.20
75615;DHT22;64199;48.578;-4.520;2022-11-06T08:28:23;23.30;69.30
75615;DHT22;64199;48.578;-4.520;2022-11-06T08:30:49;23.30;69.20
75615;DHT22;64199;48.578;-4.520;2022-11-06T08:33:15;23.30;69.10
75615;DHT22;64199;48.578;-4.520;2022-11-06T08:35:41;23.30;68.90
75615;DHT22;64199;48.578;-4.520;2022-11-06T08:38:07;23.30;68.80
75615;DHT22;64199;48.578;-4.520;2022-11-06T08:40:35;23.30;68.60
75615;DHT22;64199;48.578;-4.520;2022-11-06T08:43:03;23.20;68.60
75615;DHT22;64199;48.578;-4.520;2022-11-06T08:45:35;23.20;68.70
75615;DHT22;64199;48.578;-4.520;2022-11-06T08:48:03;23.20;68.60
75615;DHT22;64199;48.578;-4.520;2022-11-06T08:50:30;23.20;68.60
75615;DHT22;64199;48.578;-4.520;2022-11-06T08:53:00;23.10;68.50
75615;DHT22;64199;48.578;-4.520;2022-11-06T08:55:29;23.10;68.50
75615;DHT22;64199;48.578;-4.520;2022-11-06T08:57:55;23.10;68.50
75615;DHT22;64199;48.578;-4.520;2022-11-06T09:00:21;23.10;68.40
75615;DHT22;64199;48.578;-4.520;2022-11-06T09:02:47;23.00;68.40
75615;DHT22;64199;48.578;-4.520;2022-11-06T09:05:13;23.00;68.30
75615;DHT22;64199;48.578;-4.520;2022-11-06T09:07:39;23.00;68.30
75615;DHT22;64199;48.578;-4.520;2022-11-06T09:10:05;22.90;68.10
75615;DHT22;64199;48.578;-4.520;2022-11-06T09:12:31;22.90;67.90
75615;DHT22;64199;48.578;-4.520;2022-11-06T09:14:57;22.90;67.90
75615;DHT22;64199;48.578;-4.520;2022-11-06T09:17:23;22.90;67.90
75615;DHT22;64199;48.578;-4.520;2022-11-06T09:19:50;22.90;67.80
75615;DHT22;64199;48.578;-4.520;2022-11-06T09:22:16;22.80;67.70
75615;DHT22;64199;48.578;-4.520;2022-11-06T09:24:42;22.80;67.80
75615;DHT22;64199;48.578;-4.520;2022-11-06T09:27:08;22.70;67.90
75615;DHT22;64199;48.578;-4.520;2022-11-06T09:29:34;22.70;67.90
75615;DHT22;64199;48.578;-4.520;2022-11-06T09:31:59;22.70;67.90
75615;DHT22;64199;48.578;-4.520;2022-11-06T09:34:25;22.70;67.90
75615;DHT22;64199;48.578;-4.520;2022-11-06T09:36:51;22.60;67.90
75615;DHT22;64199;48.578;-4.520;2022-11-06T09:39:17;22.60;67.80
75615;DHT22;64199;48.578;-4.520;2022-11-06T09:45:06;22.60;67.60
75615;DHT22;64199;48.578;-4.520;2022-11-06T09:47:12;22.50;67.50
75615;DHT22;64199;48.578;-4.520;2022-11-06T09:49:49;22.50;67.30
75615;DHT22;64199;48.578;-4.520;2022-11-06T09:55:00;22.40;67.30
75615;DHT22;64199;48.578;-4.520;2022-11-06T09:57:40;22.40;67.30
75615;DHT22;64199;48.578;-4.520;2022-11-06T10:00:13;22.40;67.30
75615;DHT22;64199;48.578;-4.520;2022-11-06T10:02:50;22.30;67.30
75615;DHT22;64199;48.578;-4.520;2022-11-06T10:07:43;22.30;67.20
75615;DHT22;64199;48.578;-4.520;2022-11-06T10:10:18;22.20;67.10
75615;DHT22;64199;48.578;-4.520;2022-11-06T10:21:10;22.10;67.50
75615;DHT22;64199;48.578;-4.520;2022-11-06T10:24:00;22.10;67.50
75615;DHT22;64199;48.578;-4.520;2022-11-06T10:26:35;22.00;67.50
75615;DHT22;64199;48.578;-4.520;2022-11-06T10:29:25;22.00;67.50
75615;DHT22;64199;48.578;-4.520;2022-11-06T10:32:20;22.00;67.40
75615;DHT22;64199;48.578;-4.520;2022-11-06T10:34:54;21.90;67.20
75615;DHT22;64199;48.578;-4.520;2022-11-06T10:37:31;21.90;67.00
75615;DHT22;64199;48.578;-4.520;2022-11-06T10:40:04;21.90;66.90
75615;DHT22;64199;48.578;-4.520;2022-11-06T10:42:35;21.90;67.20
75615;DHT22;64199;48.578;-4.520;2022-11-06T10:45:19;21.80;67.40
75615;DHT22;64199;48.578;-4.520;2022-11-06T10:47:53;21.80;67.50
75615;DHT22;64199;48.578;-4.520;2022-11-06T10:50:22;21.80;67.60
75615;DHT22;64199;48.578;-4.520;2022-11-06T10:58:07;21.80;67.60
75615;DHT22;64199;48.578;-4.520;2022-11-06T11:00:34;21.80;67.70
75615;DHT22;64199;48.578;-4.520;2022-11-06T11:03:23;21.80;67.70
75615;DHT22;64199;48.578;-4.520;2022-11-06T11:05:50;21.80;67.80
75615;DHT22;64199;48.578;-4.520;2022-11-06T11:11:21;21.80;67.80
75615;DHT22;64199;48.578;-4.520;2022-11-06T11:16:19;21.80;67.80
75615;DHT22;64199;48.578;-4.520;2022-11-06T11:18:47;21.80;67.90
75615;DHT22;64199;48.578;-4.520;2022-11-06T11:23:46;21.80;67.90
75615;DHT22;64199;48.578;-4.520;2022-11-06T11:26:30;21.80;67.90
75615;DHT22;64199;48.578;-4.520;2022-11-06T11:29:24;21.70;67.90
75615;DHT22;64199;48.578;-4.520;2022-11-06T11:31:54;21.80;67.90
75615;DHT22;64199;48.578;-4.520;2022-11-06T11:34:24;21.80;67.90
75615;DHT22;64199;48.578;-4.520;2022-11-06T11:39:34;21.80;67.80
75615;DHT22;64199;48.578;-4.520;2022-11-06T11:44:45;21.80;67.90
75615;DHT22;64199;48.578;-4.520;2022-11-06T11:47:22;21.80;67.90
75615;DHT22;64199;48.578;-4.520;2022-11-06T11:49:48;21.80;68.00
75615;DHT22;64199;48.578;-4.520;2022-11-06T11:52:18;21.80;68.00
75615;DHT22;64199;48.578;-4.520;2022-11-06T11:54:50;21.80;68.00
75615;DHT22;64199;48.578;-4.520;2022-11-06T11:57:21;21.80;68.00
75615;DHT22;64199;48.578;-4.520;2022-11-06T11:59:54;21.80;68.00
75615;DHT22;64199;48.578;-4.520;2022-11-06T12:02:34;21.80;68.10
75615;DHT22;64199;48.578;-4.520;2022-11-06T12:05:16;21.80;68.10
75615;DHT22;64199;48.578;-4.520;2022-11-06T12:07:47;21.80;68.00
75615;DHT22;64199;48.578;-4.520;2022-11-06T12:10:36;21.80;68.10
75615;DHT22;64199;48.578;-4.520;2022-11-06T12:13:04;21.80;68.10
75615;DHT22;64199;48.578;-4.520;2022-11-06T12:18:37;21.80;68.10
75615;DHT22;64199;48.578;-4.520;2022-11-06T12:21:06;21.80;68.10
75615;DHT22;64199;48.578;-4.520;2022-11-06T12:23:56;21.80;68.10
75615;DHT22;64199;48.578;-4.520;2022-11-06T12:26:56;21.80;68.10
75615;DHT22;64199;48.578;-4.520;2022-11-06T12:37:27;21.80;68.10
75615;DHT22;64199;48.578;-4.520;2022-11-06T12:40:05;21.80;68.20
75615;DHT22;64199;48.578;-4.520;2022-11-06T12:42:38;21.80;68.30
75615;DHT22;64199;48.578;-4.520;2022-11-06T12:45:10;21.80;68.20
75615;DHT22;64199;48.578;-4.520;2022-11-06T12:56:08;21.80;68.40
75615;DHT22;64199;48.578;-4.520;2022-11-06T12:59:04;21.80;68.30
75615;DHT22;64199;48.578;-4.520;2022-11-06T13:04:27;21.80;68.30
75615;DHT22;64199;48.578;-4.520;2022-11-06T13:07:20;21.90;68.30
75615;DHT22;64199;48.578;-4.520;2022-11-06T13:12:48;21.80;68.30
75615;DHT22;64199;48.578;-4.520;2022-11-06T13:20:53;21.90;68.40
75615;DHT22;64199;48.578;-4.520;2022-11-06T13:26:05;21.90;68.40
75615;DHT22;64199;48.578;-4.520;2022-11-06T13:28:46;21.90;68.40
75615;DHT22;64199;48.578;-4.520;2022-11-06T13:31:17;21.90;68.30
75615;DHT22;64199;48.578;-4.520;2022-11-06T13:33:53;21.90;68.30
75615;DHT22;64199;48.578;-4.520;2022-11-06T13:36:22;21.90;68.30
75615;DHT22;64199;48.578;-4.520;2022-11-06T13:41:39;22.00;68.40
75615;DHT22;64199;48.578;-4.520;2022-11-06T13:44:08;22.00;68.40
75615;DHT22;64199;48.578;-4.520;2022-11-06T13:55:04;22.00;68.40
75615;DHT22;64199;48.578;-4.520;2022-11-06T13:57:57;22.00;68.30
75615;DHT22;64199;48.578;-4.520;2022-11-06T14:03:52;22.00;68.20
75615;DHT22;64199;48.578;-4.520;2022-11-06T14:06:25;22.00;68.20
75615;DHT22;64199;48.578;-4.520;2022-11-06T14:09:05;22.00;68.30
75615;DHT22;64199;48.578;-4.520;2022-11-06T14:11:37;21.90;68.30
75615;DHT22;64199;48.578;-4.520;2022-11-06T14:14:08;22.00;68.40
75615;DHT22;64199;48.578;-4.520;2022-11-06T14:16:37;21.90;68.40
75615;DHT22;64199;48.578;-4.520;2022-11-06T14:19:09;21.90;68.30
75615;DHT22;64199;48.578;-4.520;2022-11-06T14:26:43;22.00;68.40
75615;DHT22;64199;48.578;-4.520;2022-11-06T14:32:08;22.00;68.40
75615;DHT22;64199;48.578;-4.520;2022-11-06T14:34:37;21.90;68.30
75615;DHT22;64199;48.578;-4.520;2022-11-06T14:42:39;21.90;68.50
75615;DHT22;64199;48.578;-4.520;2022-11-06T14:45:18;21.90;68.40
75615;DHT22;64199;48.578;-4.520;2022-11-06T14:47:48;21.90;68.50
75615;DHT22;64199;48.578;-4.520;2022-11-06T14:52:48;21.90;68.50
75615;DHT22;64199;48.578;-4.520;2022-11-06T14:55:37;21.90;68.40
75615;DHT22;64199;48.578;-4.520;2022-11-06T15:03:04;21.90;68.40
75615;DHT22;64199;48.578;-4.520;2022-11-06T15:05:32;21.90;68.30
75615;DHT22;64199;48.578;-4.520;2022-11-06T15:08:02;21.90;68.30
75615;DHT22;64199;48.578;-4.520;2022-11-06T15:13:22;21.90;68.40
75615;DHT22;64199;48.578;-4.520;2022-11-06T15:15:59;21.90;68.40
75615;DHT22;64199;48.578;-4.520;2022-11-06T15:18:28;21.90;68.40
75615;DHT22;64199;48.578;-4.520;2022-11-06T15:21:02;21.80;68.40
75615;DHT22;64199;48.578;-4.520;2022-11-06T15:23:40;21.80;68.40
75615;DHT22;64199;48.578;-4.520;2022-11-06T15:31:27;21.80;68.50
75615;DHT22;64199;48.578;-4.520;2022-11-06T15:34:11;21.80;68.50
75615;DHT22;64199;48.578;-4.520;2022-11-06T15:36:40;21.80;68.50
75615;DHT22;64199;48.578;-4.520;2022-11-06T15:39:42;21.80;68.60
75615;DHT22;64199;48.578;-4.520;2022-11-06T15:42:08;21.80;68.70
75615;DHT22;64199;48.578;-4.520;2022-11-06T15:44:37;21.80;68.70
75615;DHT22;64199;48.578;-4.520;2022-11-06T15:47:04;21.70;68.50
75615;DHT22;64199;48.578;-4.520;2022-11-06T15:49:29;21.80;68.70
75615;DHT22;64199;48.578;-4.520;2022-11-06T15:52:02;21.70;68.70
75615;DHT22;64199;48.578;-4.520;2022-11-06T15:54:40;21.80;68.70
75615;DHT22;64199;48.578;-4.520;2022-11-06T15:57:19;21.80;68.70
75615;DHT22;64199;48.578;-4.520;2022-11-06T15:59:46;21.80;68.70
75615;DHT22;64199;48.578;-4.520;2022-11-06T16:02:16;21.70;68.70
75615;DHT22;64199;48.578;-4.520;2022-11-06T16:04:43;21.70;68.70
75615;DHT22;64199;48.578;-4.520;2022-11-06T16:07:10;21.70;68.70
75615;DHT22;64199;48.578;-4.520;2022-11-06T16:09:42;21.70;68.80
75615;DHT22;64199;48.578;-4.520;2022-11-06T16:12:14;21.70;68.80
75615;DHT22;64199;48.578;-4.520;2022-11-06T16:14:42;21.70;68.80
75615;DHT22;64199;48.578;-4.520;2022-11-06T16:17:16;21.70;69.60
75615;DHT22;64199;48.578;-4.520;2022-11-06T16:19:44;21.70;68.80
75615;DHT22;64199;48.578;-4.520;2022-11-06T16:22:15;21.70;69.60
75615;DHT22;64199;48.578;-4.520;2022-11-06T16:24:50;21.70;68.80
75615;DHT22;64199;48.578;-4.520;2022-11-06T16:27:17;21.70;68.80
75615;DHT22;64199;48.578;-4.520;2022-11-06T16:29:48;21.70;68.80
75615;DHT22;64199;48.578;-4.520;2022-11-06T16:32:22;21.70;68.80
75615;DHT22;64199;48.578;-4.520;2022-11-06T16:34:49;21.70;68.80
75615;DHT22;64199;48.578;-4.520;2022-11-06T16:39:52;21.70;68.80
75615;DHT22;64199;48.578;-4.520;2022-11-06T16:44:48;21.60;68.80
75615;DHT22;64199;48.578;-4.520;2022-11-06T16:47:20;21.60;68.80
75615;DHT22;64199;48.578;-4.520;2022-11-06T16:49:51;21.70;68.90
75615;DHT22;64199;48.578;-4.520;2022-11-06T16:55:05;21.70;68.90
75615;DHT22;64199;48.578;-4.520;2022-11-06T16:57:42;21.60;68.80
75615;DHT22;64199;48.578;-4.520;2022-11-06T17:00:29;21.60;68.90
75615;DHT22;64199;48.578;-4.520;2022-11-06T17:03:02;21.60;68.90
75615;DHT22;64199;48.578;-4.520;2022-11-06T17:05:34;21.60;68.90
75615;DHT22;64199;48.578;-4.520;2022-11-06T17:10:46;21.60;68.90
75615;DHT22;64199;48.578;-4.520;2022-11-06T17:13:32;21.60;69.00
75615;DHT22;64199;48.578;-4.520;2022-11-06T17:16:03;21.60;68.90
75615;DHT22;64199;48.578;-4.520;2022-11-06T17:18:34;21.60;68.90
75615;DHT22;64199;48.578;-4.520;2022-11-06T17:21:06;21.50;68.70
75615;DHT22;64199;48.578;-4.520;2022-11-06T17:23:32;21.50;68.70
75615;DHT22;64199;48.578;-4.520;2022-11-06T17:26:02;21.50;68.80
75615;DHT22;64199;48.578;-4.520;2022-11-06T17:28:30;21.50;68.80
75615;DHT22;64199;48.578;-4.520;2022-11-06T17:30:55;21.50;68.70
75615;DHT22;64199;48.578;-4.520;2022-11-06T17:33:21;21.50;68.60
75615;DHT22;64199;48.578;-4.520;2022-11-06T17:35:48;21.50;69.40
75615;DHT22;64199;48.578;-4.520;2022-11-06T17:38:17;21.50;68.50
75615;DHT22;64199;48.578;-4.520;2022-11-06T17:40:43;21.50;68.40
75615;DHT22;64199;48.578;-4.520;2022-11-06T17:43:10;21.40;68.30
75615;DHT22;64199;48.578;-4.520;2022-11-06T17:45:38;21.40;68.40
75615;DHT22;64199;48.578;-4.520;2022-11-06T17:48:04;21.40;68.40
75615;DHT22;64199;48.578;-4.520;2022-11-06T17:50:30;21.40;68.30
75615;DHT22;64199;48.578;-4.520;2022-11-06T17:53:16;21.40;68.30
75615;DHT22;64199;48.578;-4.520;2022-11-06T17:55:42;21.40;68.30
75615;DHT22;64199;48.578;-4.520;2022-11-06T17:58:08;21.40;68.20
75615;DHT22;64199;48.578;-4.520;2022-11-06T18:00:35;21.40;68.20
75615;DHT22;64199;48.578;-4.520;2022-11-06T18:03:02;21.40;68.30
75615;DHT22;64199;48.578;-4.520;2022-11-06T18:05:28;21.40;68.30
75615;DHT22;64199;48.578;-4.520;2022-11-06T18:07:53;21.40;68.30
75615;DHT22;64199;48.578;-4.520;2022-11-06T18:10:19;21.40;68.30
75615;DHT22;64199;48.578;-4.520;2022-11-06T18:12:45;21.30;68.20